createdAt,value
2022-10-02T00:00:27.190Z,99.99
2022-10-02T00:03:35.100Z,99.99
2022-10-02T00:06:42.893Z,99.99
2022-10-02T00:09:50.474Z,99.99
2022-10-02T00:12:58.461Z,99.99
2022-10-02T00:16:06.383Z,99.99
2022-10-02T00:19:13.935Z,99.99
2022-10-02T00:22:21.938Z,99.99
2022-10-02T00:25:29.124Z,99.99
2022-10-02T00:28:37.286Z,99.99
2022-10-02T00:31:45.136Z,99.99
2022-10-02T00:34:52.428Z,99.99
2022-10-02T00:38:00.618Z,99.99
2022-10-02T00:41:08.290Z,99.99
2022-10-02T00:44:15.671Z,99.99
2022-10-02T00:47:23.842Z,99.99
2022-10-02T00:50:23.379Z,99.98
2022-10-02T00:53:31.230Z,99.98
2022-10-02T00:56:39.304Z,99.99
2022-10-02T00:59:47.058Z,99.99
2022-10-02T01:02:54.434Z,99.99
2022-10-02T01:06:02.405Z,99.99
2022-10-02T01:09:09.913Z,99.99
2022-10-02T01:12:17.314Z,99.99
2022-10-02T01:15:24.799Z,99.99
2022-10-02T01:18:32.697Z,99.99
2022-10-02T01:21:40.132Z,99.99
2022-10-02T01:24:47.844Z,99.99
2022-10-02T01:27:55.895Z,99.99
2022-10-02T01:31:03.440Z,99.99
2022-10-02T01:34:11.163Z,99.99
2022-10-02T01:37:19.141Z,99.99
2022-10-02T01:40:26.341Z,99.99
2022-10-02T01:43:34.401Z,99.99
2022-10-02T01:46:41.861Z,99.99
2022-10-02T01:49:49.094Z,99.99
2022-10-02T01:52:57.095Z,99.99
2022-10-02T01:56:05.205Z,99.99
2022-10-02T01:59:12.356Z,99.99
2022-10-02T02:02:20.113Z,99.99
2022-10-02T02:05:27.737Z,99.99
2022-10-02T02:08:35.227Z,99.99
2022-10-02T02:11:43.188Z,99.99
2022-10-02T02:14:50.801Z,99.99
2022-10-02T02:17:58.219Z,99.99
2022-10-02T02:21:05.740Z,99.99
2022-10-02T02:24:13.669Z,99.99
2022-10-02T02:27:21.191Z,99.99
2022-10-02T02:30:28.731Z,99.99
2022-10-02T02:33:36.692Z,99.99
2022-10-02T02:36:44.462Z,99.99
2022-10-02T02:39:51.904Z,99.99
2022-10-02T02:42:59.424Z,99.99
2022-10-02T02:46:06.647Z,99.99
2022-10-02T02:49:14.525Z,99.99
2022-10-02T02:52:22.354Z,99.99
2022-10-02T02:55:29.457Z,99.99
2022-10-02T02:58:37.315Z,99.99
2022-10-02T03:01:45.334Z,99.99
2022-10-02T03:04:52.538Z,99.99
2022-10-02T03:08:00.550Z,99.99
2022-10-02T03:11:08.058Z,99.99
2022-10-02T03:14:15.718Z,99.99
2022-10-02T03:17:23.630Z,99.99
2022-10-02T03:20:31.332Z,99.99
2022-10-02T03:23:38.994Z,99.99
2022-10-02T03:26:46.991Z,99.99
2022-10-02T03:29:54.584Z,99.99
2022-10-02T03:33:02.331Z,99.99
2022-10-02T03:36:10.068Z,99.99
2022-10-02T03:39:25.109Z,99.99
2022-10-02T03:42:22.119Z,99.99
2022-10-02T03:45:50.044Z,99.99
2022-10-02T03:48:34.678Z,99.99
2022-10-02T03:51:42.148Z,99.99
2022-10-02T03:54:49.390Z,99.99
2022-10-02T03:57:57.389Z,99.99
2022-10-02T04:01:04.490Z,99.99
2022-10-02T04:04:12.462Z,99.99
2022-10-02T04:07:20.423Z,99.99
2022-10-02T04:10:27.501Z,99.99
2022-10-02T04:13:35.222Z,99.99
2022-10-02T04:16:42.932Z,99.99
2022-10-02T04:19:50.095Z,99.99
2022-10-02T04:22:58.185Z,99.99
2022-10-02T04:26:05.663Z,99.99
2022-10-02T04:29:13.096Z,99.99
2022-10-02T04:32:20.587Z,99.99
2022-10-02T04:35:27.978Z,99.99
2022-10-02T04:38:35.928Z,99.99
2022-10-02T04:41:43.769Z,99.99
2022-10-02T04:44:51.259Z,99.99
2022-10-02T04:47:58.763Z,99.99
2022-10-02T04:51:05.931Z,99.99
2022-10-02T04:54:13.781Z,99.99
2022-10-02T04:57:21.396Z,99.99
2022-10-02T05:00:28.584Z,99.99
2022-10-02T05:03:36.607Z,99.99
2022-10-02T05:06:44.141Z,99.99
2022-10-02T05:09:51.345Z,99.99
2022-10-02T05:12:59.354Z,99.99
2022-10-02T05:16:07.024Z,99.99
2022-10-02T05:19:14.617Z,99.99
2022-10-02T05:22:22.207Z,99.99
2022-10-02T05:25:29.418Z,99.99
2022-10-02T05:28:37.455Z,99.99
2022-10-02T05:31:45.416Z,99.99
2022-10-02T05:34:52.545Z,99.99
2022-10-02T05:38:00.794Z,99.99
2022-10-02T05:41:08.382Z,99.99
2022-10-02T05:44:16.185Z,99.99
2022-10-02T05:47:24.191Z,99.99
2022-10-02T05:50:31.884Z,99.99
2022-10-02T05:53:39.374Z,99.99
2022-10-02T05:56:47.525Z,99.99
2022-10-02T05:59:55.016Z,99.99
2022-10-02T06:03:02.328Z,99.99
2022-10-02T06:06:09.995Z,99.99
2022-10-02T06:09:20.010Z,99.99
2022-10-02T06:12:28.421Z,99.99
2022-10-02T06:15:36.197Z,99.99
2022-10-02T06:18:44.382Z,99.99
2022-10-02T06:21:52.151Z,99.99
2022-10-02T06:24:59.964Z,99.99
2022-10-02T06:28:07.663Z,99.99
2022-10-02T06:31:15.280Z,99.99
2022-10-02T06:34:23.602Z,99.99
2022-10-02T06:37:31.397Z,99.99
2022-10-02T06:40:39.056Z,99.99
2022-10-02T06:43:47.306Z,99.99
2022-10-02T06:46:54.994Z,99.99
2022-10-02T06:50:02.746Z,99.99
2022-10-02T06:53:10.603Z,99.99
2022-10-02T06:56:17.910Z,99.99
2022-10-02T06:59:25.847Z,99.99
2022-10-02T07:02:34.177Z,99.99
2022-10-02T07:05:41.425Z,99.99
2022-10-02T07:08:49.369Z,99.99
2022-10-02T07:11:57.093Z,99.99
2022-10-02T07:15:04.343Z,99.99
2022-10-02T07:18:12.530Z,99.99
2022-10-02T07:21:20.693Z,99.99
2022-10-02T07:24:28.264Z,99.99
2022-10-02T07:27:36.276Z,99.99
2022-10-02T07:30:43.934Z,99.99
2022-10-02T07:33:51.589Z,99.99
2022-10-02T07:36:59.395Z,99.99
2022-10-02T07:40:06.799Z,99.99
2022-10-02T07:43:14.242Z,99.99
2022-10-02T07:46:21.930Z,99.99
2022-10-02T07:49:29.862Z,99.99
2022-10-02T07:52:37.414Z,99.99
2022-10-02T07:55:45.102Z,99.99
2022-10-02T07:58:52.977Z,99.99
2022-10-02T08:02:00.674Z,99.57
2022-10-02T08:05:08.157Z,99.47
2022-10-02T08:08:15.693Z,99.42
2022-10-02T08:11:22.827Z,98.96
2022-10-02T08:14:30.597Z,98.14
2022-10-02T08:17:38.059Z,98.35
2022-10-02T08:20:45.579Z,99.06
2022-10-02T08:23:53.372Z,99.06
2022-10-02T08:27:00.950Z,99.63
2022-10-02T08:30:08.623Z,98.97
2022-10-02T08:33:16.613Z,98.46
2022-10-02T08:36:23.826Z,98.05
2022-10-02T08:39:31.778Z,97.85
2022-10-02T08:42:39.695Z,97.85
2022-10-02T08:45:47.694Z,97.65
2022-10-02T08:48:55.616Z,97.75
2022-10-02T08:52:03.476Z,97.85
2022-10-02T08:55:10.531Z,98.11
2022-10-02T08:58:18.400Z,98.41
2022-10-02T09:01:25.840Z,98.16
2022-10-02T09:04:33.411Z,96.84
2022-10-02T09:07:40.952Z,95.78
2022-10-02T09:10:48.491Z,96.44
2022-10-02T09:13:55.973Z,95.83
2022-10-02T09:17:03.893Z,96.44
2022-10-02T09:20:11.375Z,96.03
2022-10-02T09:23:19.023Z,95.73
2022-10-02T09:26:26.588Z,95.99
2022-10-02T09:29:34.627Z,95.89
2022-10-02T09:32:42.181Z,95.89
2022-10-02T09:35:49.819Z,94.73
2022-10-02T09:38:57.779Z,93.16
2022-10-02T09:42:04.938Z,91.39
2022-10-02T09:45:12.642Z,90.58
2022-10-02T09:48:20.603Z,88.05
2022-10-02T09:51:27.841Z,87.10
2022-10-02T09:54:35.667Z,87.10
2022-10-02T09:57:43.756Z,87.46
2022-10-02T10:00:50.935Z,85.64
2022-10-02T10:03:58.763Z,85.27
2022-10-02T10:07:06.309Z,85.93
2022-10-02T10:10:13.741Z,86.13
2022-10-02T10:13:21.528Z,86.53
2022-10-02T10:16:28.933Z,83.49
2022-10-02T10:19:36.511Z,83.96
2022-10-02T10:22:44.443Z,82.75
2022-10-02T10:25:51.563Z,80.98
2022-10-02T10:28:58.990Z,81.79
2022-10-02T10:32:06.551Z,81.79
2022-10-02T10:35:14.107Z,83.37
2022-10-02T10:38:21.675Z,82.02
2022-10-02T10:41:29.178Z,79.59
2022-10-02T10:44:37.056Z,79.33
2022-10-02T10:47:44.220Z,79.77
2022-10-02T10:50:51.690Z,77.98
2022-10-02T10:54:01.935Z,76.46
2022-10-02T10:57:09.332Z,76.67
2022-10-02T11:00:17.292Z,75.15
2022-10-02T11:03:24.973Z,77.24
2022-10-02T11:06:32.086Z,77.95
2022-10-02T11:09:40.035Z,78.42
2022-10-02T11:12:47.897Z,74.03
2022-10-02T11:15:55.235Z,74.50
2022-10-02T11:19:03.040Z,74.23
2022-10-02T11:22:10.180Z,77.26
2022-10-02T11:25:17.758Z,75.28
2022-10-02T11:28:25.910Z,75.42
2022-10-02T11:31:34.274Z,77.30
2022-10-02T11:34:42.856Z,76.97
2022-10-02T11:37:50.924Z,75.81
2022-10-02T11:40:58.941Z,73.66
2022-10-02T11:44:08.206Z,71.60
2022-10-02T11:47:16.727Z,71.00
2022-10-02T11:50:25.508Z,71.03
2022-10-02T11:53:34.386Z,72.81
2022-10-02T11:56:42.486Z,73.11
2022-10-02T11:59:50.394Z,70.53
2022-10-02T12:02:59.814Z,72.48
2022-10-02T12:06:08.743Z,74.50
2022-10-02T12:09:16.516Z,73.90
2022-10-02T12:12:27.718Z,72.17
2022-10-02T12:15:25.741Z,72.44
2022-10-02T12:18:34.371Z,72.91
2022-10-02T12:21:42.394Z,71.40
2022-10-02T12:24:54.731Z,71.03
2022-10-02T12:27:53.332Z,72.55
2022-10-02T12:31:01.787Z,73.69
2022-10-02T12:34:10.567Z,74.94
2022-10-02T12:37:18.579Z,77.06
2022-10-02T12:40:27.056Z,76.76
2022-10-02T12:43:35.380Z,79.02
2022-10-02T12:46:43.844Z,78.66
2022-10-02T12:49:52.140Z,79.20
2022-10-02T12:53:00.133Z,79.54
2022-10-02T12:56:08.975Z,79.64
2022-10-02T12:59:17.326Z,79.85
2022-10-02T13:02:42.849Z,78.63
2022-10-02T13:05:30.477Z,78.83
2022-10-02T13:08:39.646Z,79.47
2022-10-02T13:11:47.240Z,79.78
2022-10-02T13:14:55.023Z,80.49
2022-10-02T13:18:03.705Z,81.30
2022-10-02T13:21:11.095Z,81.40
2022-10-02T13:24:19.468Z,81.16
2022-10-02T13:27:31.272Z,82.07
2022-10-02T13:30:28.789Z,80.72
2022-10-02T13:33:37.368Z,80.62
2022-10-02T13:36:45.591Z,79.87
2022-10-02T13:39:53.791Z,80.78
2022-10-02T13:43:02.572Z,80.38
2022-10-02T13:46:10.533Z,81.29
2022-10-02T13:49:18.345Z,82.50
2022-10-02T13:52:25.775Z,82.10
2022-10-02T13:55:33.803Z,82.50
2022-10-02T13:58:42.197Z,83.31
2022-10-02T14:01:50.495Z,84.02
2022-10-02T14:04:59.333Z,84.42
2022-10-02T14:08:07.261Z,84.22
2022-10-02T14:11:15.370Z,84.63
2022-10-02T14:14:23.596Z,85.24
2022-10-02T14:17:31.113Z,85.68
2022-10-02T14:20:39.524Z,86.55
2022-10-02T14:23:47.193Z,86.15
2022-10-02T14:26:54.705Z,85.84
2022-10-02T14:30:03.289Z,85.24
2022-10-02T14:33:11.619Z,86.25
2022-10-02T14:36:19.127Z,85.27
2022-10-02T14:39:27.672Z,86.49
2022-10-02T14:42:36.102Z,84.87
2022-10-02T14:45:44.269Z,85.99
2022-10-02T14:48:52.403Z,85.48
2022-10-02T14:52:00.347Z,84.87
2022-10-02T14:55:08.495Z,84.97
2022-10-02T14:58:16.637Z,84.77
2022-10-02T15:01:24.273Z,84.36
2022-10-02T15:04:32.785Z,85.78
2022-10-02T15:07:40.902Z,83.96
2022-10-02T15:10:48.598Z,84.16
2022-10-02T15:13:56.853Z,83.15
2022-10-02T15:17:04.936Z,82.64
2022-10-02T15:20:12.808Z,83.04
2022-10-02T15:23:22.224Z,83.04
2022-10-02T15:26:30.685Z,82.24
2022-10-02T15:29:39.073Z,83.49
2022-10-02T15:32:46.706Z,83.83
2022-10-02T15:35:54.655Z,85.56
2022-10-02T15:39:02.306Z,87.87
2022-10-02T15:42:09.967Z,91.06
2022-10-02T15:45:17.578Z,94.60
2022-10-02T15:48:25.158Z,94.48
2022-10-02T15:51:32.867Z,95.39
2022-10-02T15:54:40.880Z,95.94
2022-10-02T15:57:48.249Z,96.86
2022-10-02T16:00:56.135Z,97.78
2022-10-02T16:04:03.782Z,98.23
2022-10-02T16:07:11.214Z,98.23
2022-10-02T16:10:18.629Z,98.02
2022-10-02T16:13:26.153Z,98.13
2022-10-02T16:16:34.090Z,97.97
2022-10-02T16:19:42.178Z,97.97
2022-10-02T16:22:50.733Z,98.18
2022-10-02T16:25:58.940Z,98.63
2022-10-02T16:29:07.670Z,98.52
2022-10-02T16:32:15.382Z,98.93
2022-10-02T16:35:23.380Z,99.04
2022-10-02T16:38:31.932Z,99.29
2022-10-02T16:41:39.312Z,99.59
2022-10-02T16:44:47.542Z,99.90
2022-10-02T16:47:55.606Z,99.99
2022-10-02T16:51:02.935Z,99.99
2022-10-02T16:54:10.855Z,99.99
2022-10-02T16:57:18.913Z,99.99
2022-10-02T17:00:26.027Z,99.99
2022-10-02T17:03:33.968Z,99.99
2022-10-02T17:06:41.419Z,99.99
2022-10-02T17:09:48.601Z,99.99
2022-10-02T17:12:58.027Z,99.99
2022-10-02T17:16:05.907Z,99.99
2022-10-02T17:19:13.609Z,99.99
2022-10-02T17:22:23.828Z,99.99
2022-10-02T17:25:24.648Z,99.99
2022-10-02T17:28:32.862Z,99.99
2022-10-02T17:31:40.682Z,99.99
2022-10-02T17:34:49.325Z,99.99
2022-10-02T17:37:57.083Z,99.99
2022-10-02T17:41:04.890Z,99.99
2022-10-02T17:44:13.064Z,99.99
2022-10-02T17:47:20.798Z,99.99
2022-10-02T17:50:28.408Z,99.99
2022-10-02T17:53:36.772Z,99.99
2022-10-02T17:56:43.979Z,99.99
2022-10-02T17:59:51.700Z,99.99
2022-10-02T18:03:00.093Z,99.99
2022-10-02T18:06:07.423Z,99.99
2022-10-02T18:09:15.641Z,99.99
2022-10-02T18:12:23.813Z,99.99
2022-10-02T18:15:31.275Z,99.99
2022-10-02T18:18:39.078Z,99.99
2022-10-02T18:21:47.193Z,99.99
2022-10-02T18:24:54.567Z,99.99
2022-10-02T18:28:03.001Z,99.99
2022-10-02T18:31:11.073Z,99.99
2022-10-02T18:34:18.708Z,99.99
2022-10-02T18:37:26.821Z,99.99
2022-10-02T18:40:34.630Z,99.99
2022-10-02T18:43:42.431Z,99.99
2022-10-02T18:46:50.703Z,99.99
2022-10-02T18:49:58.643Z,99.99
2022-10-02T18:53:06.302Z,99.99
2022-10-02T18:56:14.014Z,99.99
2022-10-02T18:59:21.813Z,99.99
2022-10-02T19:02:29.676Z,99.99
2022-10-02T19:05:37.245Z,99.99
2022-10-02T19:08:45.435Z,99.99
2022-10-02T19:11:53.185Z,99.99
2022-10-02T19:15:00.907Z,99.99
2022-10-02T19:18:08.628Z,99.99
2022-10-02T19:21:16.308Z,99.99
2022-10-02T19:24:23.919Z,99.99
2022-10-02T19:27:32.383Z,99.99
2022-10-02T19:30:43.493Z,99.99
2022-10-02T19:33:42.760Z,99.99
2022-10-02T19:36:51.023Z,99.99
2022-10-02T19:39:58.444Z,99.99
2022-10-02T19:43:06.615Z,99.99
2022-10-02T19:46:13.991Z,99.99
2022-10-02T19:49:21.588Z,99.99
2022-10-02T19:52:29.807Z,99.99
2022-10-02T19:55:37.083Z,99.99
2022-10-02T19:58:44.782Z,99.99
2022-10-02T20:01:52.929Z,99.99
2022-10-02T20:05:00.281Z,99.99
2022-10-02T20:08:08.191Z,99.99
2022-10-02T20:11:15.968Z,99.99
2022-10-02T20:14:23.642Z,99.99
2022-10-02T20:17:31.473Z,99.99
2022-10-02T20:20:39.415Z,99.99
2022-10-02T20:23:47.251Z,99.99
2022-10-02T20:26:54.622Z,99.99
2022-10-02T20:30:02.126Z,99.99
2022-10-02T20:33:09.886Z,99.99
2022-10-02T20:36:17.388Z,99.99
2022-10-02T20:39:25.410Z,99.99
2022-10-02T20:42:33.009Z,99.99
2022-10-02T20:45:40.640Z,99.99
2022-10-02T20:49:07.623Z,99.99
2022-10-02T20:51:53.512Z,99.99
2022-10-02T20:55:01.332Z,99.99
2022-10-02T20:58:09.271Z,99.99
2022-10-02T21:01:17.108Z,99.99
2022-10-02T21:04:24.683Z,99.99
2022-10-02T21:07:32.886Z,99.99
2022-10-02T21:10:40.104Z,99.99
2022-10-02T21:13:48.075Z,99.99
2022-10-02T21:16:56.221Z,99.99
2022-10-02T21:20:03.476Z,99.99
2022-10-02T21:23:11.599Z,99.99
2022-10-02T21:26:19.171Z,99.99
2022-10-02T21:29:26.960Z,99.99
2022-10-02T21:32:34.962Z,99.99
2022-10-02T21:35:42.309Z,99.99
2022-10-02T21:38:50.480Z,99.99
2022-10-02T21:41:58.128Z,99.99
2022-10-02T21:45:06.265Z,99.99
2022-10-02T21:48:13.972Z,99.99
2022-10-02T21:51:21.695Z,99.99
2022-10-02T21:54:29.853Z,99.99
2022-10-02T21:57:37.482Z,99.99
2022-10-02T22:00:45.206Z,99.99
2022-10-02T22:03:53.396Z,99.99
2022-10-02T22:07:00.566Z,99.99
2022-10-02T22:10:08.645Z,99.99
2022-10-02T22:13:15.816Z,99.99
2022-10-02T22:16:23.903Z,99.99
2022-10-02T22:19:31.658Z,99.99
2022-10-02T22:22:38.881Z,99.99
2022-10-02T22:25:46.945Z,99.99
2022-10-02T22:28:54.849Z,99.99
2022-10-02T22:32:02.100Z,99.99
2022-10-02T22:35:10.178Z,99.99
2022-10-02T22:38:18.285Z,99.99
2022-10-02T22:41:25.947Z,99.99
2022-10-02T22:44:33.664Z,99.99
2022-10-02T22:47:41.462Z,99.99
2022-10-02T22:50:49.175Z,99.99
2022-10-02T22:53:56.989Z,99.99
2022-10-02T22:57:04.716Z,99.99
2022-10-02T23:00:12.386Z,99.99
2022-10-02T23:03:20.109Z,99.99
2022-10-02T23:06:30.740Z,99.99
2022-10-02T23:09:28.195Z,99.99
2022-10-02T23:12:36.821Z,99.99
2022-10-02T23:15:44.803Z,99.99
2022-10-02T23:18:52.519Z,99.99
2022-10-02T23:22:00.092Z,99.99
2022-10-02T23:25:08.040Z,99.99
2022-10-02T23:28:15.396Z,99.99
2022-10-02T23:31:23.349Z,99.99
2022-10-02T23:34:31.303Z,99.99
2022-10-02T23:37:38.600Z,99.99
2022-10-02T23:40:46.605Z,99.99
2022-10-02T23:43:54.126Z,99.99
2022-10-02T23:47:01.358Z,99.99
2022-10-02T23:50:09.436Z,99.99
2022-10-02T23:53:16.759Z,99.99
2022-10-02T23:56:24.779Z,99.99
2022-10-02T23:59:32.407Z,99.99
